sensor_id;sensor_type;location;lat;lon;timestamp;temperature;humidity
4390;DHT22;2209;48.982;8.406;2023-07-29T00:01:37;20.40;99.90
4390;DHT22;2209;48.982;8.406;2023-07-29T00:04:20;20.30;99.90
4390;DHT22;2209;48.982;8.406;2023-07-29T00:06:42;20.30;99.90
4390;DHT22;2209;48.982;8.406;2023-07-29T00:09:08;20.30;99.90
4390;DHT22;2209;48.982;8.406;2023-07-29T00:11:35;20.20;99.90
4390;DHT22;2209;48.982;8.406;2023-07-29T00:14:06;20.20;99.90
4390;DHT22;2209;48.982;8.406;2023-07-29T00:16:44;20.20;99.90
4390;DHT22;2209;48.982;8.406;2023-07-29T00:19:20;20.10;99.90
4390;DHT22;2209;48.982;8.406;2023-07-29T00:22:02;20.10;99.90
4390;DHT22;2209;48.982;8.406;2023-07-29T00:24:51;20.20;99.90
4390;DHT22;2209;48.982;8.406;2023-07-29T00:43:16;20.20;99.90
4390;DHT22;2209;48.982;8.406;2023-07-29T00:45:41;20.20;99.90
4390;DHT22;2209;48.982;8.406;2023-07-29T00:48:05;20.30;99.90
4390;DHT22;2209;48.982;8.406;2023-07-29T00:50:27;20.30;99.90
4390;DHT22;2209;48.982;8.406;2023-07-29T00:53:04;20.30;99.90
4390;DHT22;2209;48.982;8.406;2023-07-29T00:55:27;20.30;99.90
4390;DHT22;2209;48.982;8.406;2023-07-29T00:57:50;20.30;99.90
4390;DHT22;2209;48.982;8.406;2023-07-29T01:00:16;20.30;99.90
4390;DHT22;2209;48.982;8.406;2023-07-29T01:02:39;20.30;99.90
4390;DHT22;2209;48.982;8.406;2023-07-29T01:05:01;20.30;99.90
4390;DHT22;2209;48.982;8.406;2023-07-29T01:07:30;20.30;99.90
4390;DHT22;2209;48.982;8.406;2023-07-29T01:10:02;20.30;99.90
4390;DHT22;2209;48.982;8.406;2023-07-29T01:12:33;20.30;99.90
4390;DHT22;2209;48.982;8.406;2023-07-29T01:15:10;20.30;99.90
4390;DHT22;2209;48.982;8.406;2023-07-29T01:17:52;20.20;99.90
4390;DHT22;2209;48.982;8.406;2023-07-29T01:20:17;20.20;99.90
4390;DHT22;2209;48.982;8.406;2023-07-29T01:22:41;20.20;99.90
4390;DHT22;2209;48.982;8.406;2023-07-29T01:25:20;20.20;99.90
4390;DHT22;2209;48.982;8.406;2023-07-29T01:27:44;20.20;99.90
4390;DHT22;2209;48.982;8.406;2023-07-29T01:30:07;20.20;99.90
4390;DHT22;2209;48.982;8.406;2023-07-29T01:32:37;20.20;99.90
4390;DHT22;2209;48.982;8.406;2023-07-29T01:35:06;20.20;99.90
4390;DHT22;2209;48.982;8.406;2023-07-29T01:37:33;20.20;99.90
4390;DHT22;2209;48.982;8.406;2023-07-29T01:39:57;20.20;99.90
4390;DHT22;2209;48.982;8.406;2023-07-29T01:42:22;20.20;99.90
4390;DHT22;2209;48.982;8.406;2023-07-29T01:44:44;20.10;99.90
4390;DHT22;2209;48.982;8.406;2023-07-29T01:47:06;20.10;99.90
4390;DHT22;2209;48.982;8.406;2023-07-29T01:49:28;20.20;99.90
4390;DHT22;2209;48.982;8.406;2023-07-29T01:51:50;20.10;99.90
4390;DHT22;2209;48.982;8.406;2023-07-29T01:54:12;20.10;99.90
4390;DHT22;2209;48.982;8.406;2023-07-29T01:56:34;20.10;99.90
4390;DHT22;2209;48.982;8.406;2023-07-29T01:58:59;20.10;99.90
4390;DHT22;2209;48.982;8.406;2023-07-29T02:01:21;20.10;99.90
4390;DHT22;2209;48.982;8.406;2023-07-29T02:03:43;20.10;99.90
4390;DHT22;2209;48.982;8.406;2023-07-29T02:06:05;20.10;99.90
4390;DHT22;2209;48.982;8.406;2023-07-29T02:08:27;20.10;99.90
4390;DHT22;2209;48.982;8.406;2023-07-29T02:10:49;20.10;99.90
4390;DHT22;2209;48.982;8.406;2023-07-29T02:13:12;20.10;99.90
4390;DHT22;2209;48.982;8.406;2023-07-29T02:15:35;20.10;99.90
4390;DHT22;2209;48.982;8.406;2023-07-29T02:17:57;20.10;99.90
4390;DHT22;2209;48.982;8.406;2023-07-29T02:20:22;20.10;99.90
4390;DHT22;2209;48.982;8.406;2023-07-29T02:22:44;20.10;99.90
4390;DHT22;2209;48.982;8.406;2023-07-29T02:25:09;20.10;99.90
4390;DHT22;2209;48.982;8.406;2023-07-29T02:27:31;20.10;99.90
4390;DHT22;2209;48.982;8.406;2023-07-29T02:29:54;20.10;99.90
4390;DHT22;2209;48.982;8.406;2023-07-29T02:32:31;20.00;99.90
4390;DHT22;2209;48.982;8.406;2023-07-29T02:34:53;20.00;99.90
4390;DHT22;2209;48.982;8.406;2023-07-29T02:37:15;20.00;99.90
4390;DHT22;2209;48.982;8.406;2023-07-29T02:39:37;20.00;99.90
4390;DHT22;2209;48.982;8.406;2023-07-29T02:41:59;20.00;99.90
4390;DHT22;2209;48.982;8.406;2023-07-29T02:44:21;20.00;99.90
4390;DHT22;2209;48.982;8.406;2023-07-29T02:46:44;20.00;99.90
4390;DHT22;2209;48.982;8.406;2023-07-29T02:49:07;20.00;99.90
4390;DHT22;2209;48.982;8.406;2023-07-29T02:51:29;20.00;99.90
4390;DHT22;2209;48.982;8.406;2023-07-29T02:53:51;20.00;99.90
4390;DHT22;2209;48.982;8.406;2023-07-29T02:56:13;20.00;99.90
4390;DHT22;2209;48.982;8.406;2023-07-29T02:58:36;20.00;99.90
4390;DHT22;2209;48.982;8.406;2023-07-29T03:01:00;20.00;99.90
4390;DHT22;2209;48.982;8.406;2023-07-29T03:03:22;20.00;99.90
4390;DHT22;2209;48.982;8.406;2023-07-29T03:05:46;20.00;99.90
4390;DHT22;2209;48.982;8.406;2023-07-29T03:08:08;20.00;99.90
4390;DHT22;2209;48.982;8.406;2023-07-29T03:10:30;20.00;99.90
4390;DHT22;2209;48.982;8.406;2023-07-29T03:13:06;20.00;99.90
4390;DHT22;2209;48.982;8.406;2023-07-29T03:15:30;20.00;99.90
4390;DHT22;2209;48.982;8.406;2023-07-29T03:17:52;20.00;99.90
4390;DHT22;2209;48.982;8.406;2023-07-29T03:20:28;20.00;99.90
4390;DHT22;2209;48.982;8.406;2023-07-29T03:23:05;20.00;99.90
4390;DHT22;2209;48.982;8.406;2023-07-29T03:25:27;20.00;99.90
4390;DHT22;2209;48.982;8.406;2023-07-29T03:27:49;20.00;99.90
4390;DHT22;2209;48.982;8.406;2023-07-29T03:30:11;20.00;99.90
4390;DHT22;2209;48.982;8.406;2023-07-29T03:32:34;20.00;99.90
4390;DHT22;2209;48.982;8.406;2023-07-29T03:34:56;20.00;99.90
4390;DHT22;2209;48.982;8.406;2023-07-29T03:37:18;19.90;99.90
4390;DHT22;2209;48.982;8.406;2023-07-29T03:39:42;19.90;99.90
4390;DHT22;2209;48.982;8.406;2023-07-29T03:42:09;19.90;99.90
4390;DHT22;2209;48.982;8.406;2023-07-29T03:44:31;19.90;99.90
4390;DHT22;2209;48.982;8.406;2023-07-29T03:46:53;19.90;99.90
4390;DHT22;2209;48.982;8.406;2023-07-29T03:49:15;19.90;99.90
4390;DHT22;2209;48.982;8.406;2023-07-29T03:51:37;19.90;99.90
4390;DHT22;2209;48.982;8.406;2023-07-29T03:53:59;19.90;99.90
4390;DHT22;2209;48.982;8.406;2023-07-29T03:56:23;19.90;99.90
4390;DHT22;2209;48.982;8.406;2023-07-29T03:58:46;19.90;99.90
4390;DHT22;2209;48.982;8.406;2023-07-29T04:01:08;19.90;99.90
4390;DHT22;2209;48.982;8.406;2023-07-29T04:03:31;19.90;99.90
4390;DHT22;2209;48.982;8.406;2023-07-29T04:05:53;19.90;99.90
4390;DHT22;2209;48.982;8.406;2023-07-29T04:08:15;19.90;99.90
4390;DHT22;2209;48.982;8.406;2023-07-29T04:10:38;19.90;99.90
4390;DHT22;2209;48.982;8.406;2023-07-29T04:13:01;19.90;99.90
4390;DHT22;2209;48.982;8.406;2023-07-29T04:15:23;19.90;99.90
4390;DHT22;2209;48.982;8.406;2023-07-29T04:17:45;20.00;99.90
4390;DHT22;2209;48.982;8.406;2023-07-29T04:20:08;20.00;99.90
4390;DHT22;2209;48.982;8.406;2023-07-29T04:22:31;20.00;99.90
4390;DHT22;2209;48.982;8.406;2023-07-29T04:24:53;20.00;99.90
4390;DHT22;2209;48.982;8.406;2023-07-29T04:27:15;20.00;99.90
4390;DHT22;2209;48.982;8.406;2023-07-29T04:29:38;20.00;99.90
4390;DHT22;2209;48.982;8.406;2023-07-29T04:32:00;20.00;99.90
4390;DHT22;2209;48.982;8.406;2023-07-29T04:34:22;20.00;99.90
4390;DHT22;2209;48.982;8.406;2023-07-29T04:36:45;20.00;99.90
4390;DHT22;2209;48.982;8.406;2023-07-29T04:39:07;20.00;99.90
4390;DHT22;2209;48.982;8.406;2023-07-29T04:41:29;20.00;99.90
4390;DHT22;2209;48.982;8.406;2023-07-29T04:43:51;20.00;99.90
4390;DHT22;2209;48.982;8.406;2023-07-29T04:46:15;20.00;99.90
4390;DHT22;2209;48.982;8.406;2023-07-29T04:48:37;20.00;99.90
4390;DHT22;2209;48.982;8.406;2023-07-29T04:50:59;19.90;99.90
4390;DHT22;2209;48.982;8.406;2023-07-29T04:53:21;19.90;99.90
4390;DHT22;2209;48.982;8.406;2023-07-29T04:55:43;19.90;99.90
4390;DHT22;2209;48.982;8.406;2023-07-29T04:58:06;19.90;99.90
4390;DHT22;2209;48.982;8.406;2023-07-29T05:00:28;19.90;99.90
4390;DHT22;2209;48.982;8.406;2023-07-29T05:02:51;19.90;99.90
4390;DHT22;2209;48.982;8.406;2023-07-29T05:05:13;19.90;99.90
4390;DHT22;2209;48.982;8.406;2023-07-29T05:07:36;19.90;99.90
4390;DHT22;2209;48.982;8.406;2023-07-29T05:09:58;19.90;99.90
4390;DHT22;2209;48.982;8.406;2023-07-29T05:12:20;19.90;99.90
4390;DHT22;2209;48.982;8.406;2023-07-29T05:14:44;19.90;99.90
4390;DHT22;2209;48.982;8.406;2023-07-29T05:17:06;19.90;99.90
4390;DHT22;2209;48.982;8.406;2023-07-29T05:19:30;19.90;99.90
4390;DHT22;2209;48.982;8.406;2023-07-29T05:21:52;19.90;99.90
4390;DHT22;2209;48.982;8.406;2023-07-29T05:24:14;19.90;99.90
4390;DHT22;2209;48.982;8.406;2023-07-29T05:26:36;19.90;99.90
4390;DHT22;2209;48.982;8.406;2023-07-29T05:28:58;19.90;99.90
4390;DHT22;2209;48.982;8.406;2023-07-29T05:31:20;19.90;99.90
4390;DHT22;2209;48.982;8.406;2023-07-29T05:33:42;19.90;99.90
4390;DHT22;2209;48.982;8.406;2023-07-29T05:36:06;19.90;99.90
4390;DHT22;2209;48.982;8.406;2023-07-29T05:38:28;19.90;99.90
4390;DHT22;2209;48.982;8.406;2023-07-29T05:40:50;19.90;99.90
4390;DHT22;2209;48.982;8.406;2023-07-29T05:43:12;20.00;99.90
4390;DHT22;2209;48.982;8.406;2023-07-29T05:45:36;20.00;99.90
4390;DHT22;2209;48.982;8.406;2023-07-29T05:47:58;20.00;99.90
4390;DHT22;2209;48.982;8.406;2023-07-29T05:50:20;20.00;99.90
4390;DHT22;2209;48.982;8.406;2023-07-29T05:52:44;20.00;99.90
4390;DHT22;2209;48.982;8.406;2023-07-29T05:55:07;20.00;99.90
4390;DHT22;2209;48.982;8.406;2023-07-29T05:57:29;20.00;99.90
4390;DHT22;2209;48.982;8.406;2023-07-29T05:59:51;20.00;99.90
4390;DHT22;2209;48.982;8.406;2023-07-29T06:02:13;20.10;99.90
4390;DHT22;2209;48.982;8.406;2023-07-29T06:04:35;20.00;99.90
4390;DHT22;2209;48.982;8.406;2023-07-29T06:06:57;20.10;99.90
4390;DHT22;2209;48.982;8.406;2023-07-29T06:09:21;20.10;99.90
4390;DHT22;2209;48.982;8.406;2023-07-29T06:11:43;20.10;99.90
4390;DHT22;2209;48.982;8.406;2023-07-29T06:14:19;20.10;99.90
4390;DHT22;2209;48.982;8.406;2023-07-29T06:16:41;20.10;99.90
4390;DHT22;2209;48.982;8.406;2023-07-29T06:19:03;20.10;99.90
4390;DHT22;2209;48.982;8.406;2023-07-29T06:21:29;20.10;99.90
4390;DHT22;2209;48.982;8.406;2023-07-29T06:23:51;20.10;99.90
4390;DHT22;2209;48.982;8.406;2023-07-29T06:26:15;20.10;99.90
4390;DHT22;2209;48.982;8.406;2023-07-29T06:28:37;20.10;99.90
4390;DHT22;2209;48.982;8.406;2023-07-29T06:30:59;20.10;99.90
4390;DHT22;2209;48.982;8.406;2023-07-29T06:33:21;20.10;99.90
4390;DHT22;2209;48.982;8.406;2023-07-29T06:35:43;20.10;99.90
4390;DHT22;2209;48.982;8.406;2023-07-29T06:38:06;20.10;99.90
4390;DHT22;2209;48.982;8.406;2023-07-29T06:40:42;20.10;99.90
4390;DHT22;2209;48.982;8.406;2023-07-29T06:43:06;20.10;99.90
4390;DHT22;2209;48.982;8.406;2023-07-29T06:45:28;20.10;99.90
4390;DHT22;2209;48.982;8.406;2023-07-29T06:47:50;20.10;99.90
4390;DHT22;2209;48.982;8.406;2023-07-29T06:50:12;20.10;99.90
4390;DHT22;2209;48.982;8.406;2023-07-29T06:52:34;20.10;99.90
4390;DHT22;2209;48.982;8.406;2023-07-29T06:54:57;20.10;99.90
4390;DHT22;2209;48.982;8.406;2023-07-29T06:57:19;20.10;99.90
4390;DHT22;2209;48.982;8.406;2023-07-29T06:59:43;20.10;99.90
4390;DHT22;2209;48.982;8.406;2023-07-29T07:02:06;20.10;99.90
4390;DHT22;2209;48.982;8.406;2023-07-29T07:04:28;20.00;99.90
4390;DHT22;2209;48.982;8.406;2023-07-29T07:06:50;20.00;99.90
4390;DHT22;2209;48.982;8.406;2023-07-29T07:09:12;20.00;99.90
4390;DHT22;2209;48.982;8.406;2023-07-29T07:11:34;20.10;99.90
4390;DHT22;2209;48.982;8.406;2023-07-29T07:13:56;20.10;99.90
4390;DHT22;2209;48.982;8.406;2023-07-29T07:16:20;20.10;99.90
4390;DHT22;2209;48.982;8.406;2023-07-29T07:18:42;20.10;99.90
4390;DHT22;2209;48.982;8.406;2023-07-29T07:21:04;20.10;99.90
4390;DHT22;2209;48.982;8.406;2023-07-29T07:23:26;20.10;99.90
4390;DHT22;2209;48.982;8.406;2023-07-29T07:25:48;20.10;99.90
4390;DHT22;2209;48.982;8.406;2023-07-29T07:28:10;20.20;99.90
4390;DHT22;2209;48.982;8.406;2023-07-29T07:30:32;20.20;99.90
4390;DHT22;2209;48.982;8.406;2023-07-29T07:32:56;20.20;99.90
4390;DHT22;2209;48.982;8.406;2023-07-29T07:35:18;20.20;99.90
4390;DHT22;2209;48.982;8.406;2023-07-29T07:37:40;20.30;99.90
4390;DHT22;2209;48.982;8.406;2023-07-29T07:40:02;20.30;99.90
4390;DHT22;2209;48.982;8.406;2023-07-29T07:42:25;20.30;99.90
4390;DHT22;2209;48.982;8.406;2023-07-29T07:44:47;20.30;99.90
4390;DHT22;2209;48.982;8.406;2023-07-29T07:47:09;20.40;99.90
4390;DHT22;2209;48.982;8.406;2023-07-29T07:49:32;20.40;99.90
4390;DHT22;2209;48.982;8.406;2023-07-29T07:51:54;20.40;99.90
4390;DHT22;2209;48.982;8.406;2023-07-29T07:54:16;20.40;99.90
4390;DHT22;2209;48.982;8.406;2023-07-29T07:56:39;20.50;99.90
4390;DHT22;2209;48.982;8.406;2023-07-29T07:59:01;20.50;99.90
4390;DHT22;2209;48.982;8.406;2023-07-29T08:01:23;20.50;99.90
4390;DHT22;2209;48.982;8.406;2023-07-29T08:03:45;20.60;99.90
4390;DHT22;2209;48.982;8.406;2023-07-29T08:06:08;20.60;99.90
4390;DHT22;2209;48.982;8.406;2023-07-29T08:08:30;20.70;99.90
4390;DHT22;2209;48.982;8.406;2023-07-29T08:10:53;20.70;99.90
4390;DHT22;2209;48.982;8.406;2023-07-29T08:13:15;20.70;99.90
4390;DHT22;2209;48.982;8.406;2023-07-29T08:15:37;20.70;99.90
4390;DHT22;2209;48.982;8.406;2023-07-29T08:17:59;20.70;99.90
4390;DHT22;2209;48.982;8.406;2023-07-29T08:20:22;20.70;99.90
4390;DHT22;2209;48.982;8.406;2023-07-29T08:22:45;20.70;99.90
4390;DHT22;2209;48.982;8.406;2023-07-29T08:25:08;20.80;99.90
4390;DHT22;2209;48.982;8.406;2023-07-29T08:27:30;20.80;99.90
4390;DHT22;2209;48.982;8.406;2023-07-29T08:29:53;20.80;99.90
4390;DHT22;2209;48.982;8.406;2023-07-29T08:32:16;20.80;99.90
4390;DHT22;2209;48.982;8.406;2023-07-29T08:34:38;20.80;99.90
4390;DHT22;2209;48.982;8.406;2023-07-29T08:37:01;20.70;99.90
4390;DHT22;2209;48.982;8.406;2023-07-29T08:39:25;20.80;99.90
4390;DHT22;2209;48.982;8.406;2023-07-29T08:41:53;20.80;99.90
4390;DHT22;2209;48.982;8.406;2023-07-29T08:44:20;20.70;99.90
4390;DHT22;2209;48.982;8.406;2023-07-29T08:46:43;20.70;99.90
4390;DHT22;2209;48.982;8.406;2023-07-29T08:49:05;20.70;99.90
4390;DHT22;2209;48.982;8.406;2023-07-29T08:51:29;20.70;99.90
4390;DHT22;2209;48.982;8.406;2023-07-29T08:53:53;20.70;99.90
4390;DHT22;2209;48.982;8.406;2023-07-29T08:56:17;20.70;99.90
4390;DHT22;2209;48.982;8.406;2023-07-29T08:58:39;20.70;99.90
4390;DHT22;2209;48.982;8.406;2023-07-29T09:01:01;20.70;99.90
4390;DHT22;2209;48.982;8.406;2023-07-29T09:03:23;20.70;99.90
4390;DHT22;2209;48.982;8.406;2023-07-29T09:05:46;20.70;99.90
4390;DHT22;2209;48.982;8.406;2023-07-29T09:08:08;20.70;99.90
4390;DHT22;2209;48.982;8.406;2023-07-29T09:10:30;20.70;99.90
4390;DHT22;2209;48.982;8.406;2023-07-29T09:12:58;20.70;99.90
4390;DHT22;2209;48.982;8.406;2023-07-29T09:15:27;20.70;99.90
4390;DHT22;2209;48.982;8.406;2023-07-29T09:17:50;20.70;99.90
4390;DHT22;2209;48.982;8.406;2023-07-29T09:20:12;20.70;99.90
4390;DHT22;2209;48.982;8.406;2023-07-29T09:22:34;20.70;99.90
4390;DHT22;2209;48.982;8.406;2023-07-29T09:24:57;20.70;99.90
4390;DHT22;2209;48.982;8.406;2023-07-29T09:27:26;20.70;99.90
4390;DHT22;2209;48.982;8.406;2023-07-29T09:29:50;20.70;99.90
4390;DHT22;2209;48.982;8.406;2023-07-29T09:32:19;20.70;99.90
4390;DHT22;2209;48.982;8.406;2023-07-29T09:34:42;20.70;99.90
4390;DHT22;2209;48.982;8.406;2023-07-29T09:37:04;20.80;99.90
4390;DHT22;2209;48.982;8.406;2023-07-29T09:39:28;20.80;99.90
4390;DHT22;2209;48.982;8.406;2023-07-29T09:41:51;20.80;99.90
4390;DHT22;2209;48.982;8.406;2023-07-29T09:44:13;20.90;99.90
4390;DHT22;2209;48.982;8.406;2023-07-29T09:46:37;20.90;99.90
4390;DHT22;2209;48.982;8.406;2023-07-29T09:49:00;20.90;99.90
4390;DHT22;2209;48.982;8.406;2023-07-29T09:51:24;20.90;99.90
4390;DHT22;2209;48.982;8.406;2023-07-29T09:53:47;21.00;99.90
4390;DHT22;2209;48.982;8.406;2023-07-29T09:56:09;21.00;99.90
4390;DHT22;2209;48.982;8.406;2023-07-29T09:58:32;21.00;99.90
4390;DHT22;2209;48.982;8.406;2023-07-29T10:00:56;21.00;99.90
4390;DHT22;2209;48.982;8.406;2023-07-29T10:03:20;21.10;99.90
4390;DHT22;2209;48.982;8.406;2023-07-29T10:05:43;21.10;99.90
4390;DHT22;2209;48.982;8.406;2023-07-29T10:08:05;21.20;99.90
4390;DHT22;2209;48.982;8.406;2023-07-29T10:10:28;21.20;99.90
4390;DHT22;2209;48.982;8.406;2023-07-29T10:12:52;21.20;99.90
4390;DHT22;2209;48.982;8.406;2023-07-29T10:15:15;21.20;99.90
4390;DHT22;2209;48.982;8.406;2023-07-29T10:17:38;21.30;99.90
4390;DHT22;2209;48.982;8.406;2023-07-29T10:20:03;21.20;99.90
4390;DHT22;2209;48.982;8.406;2023-07-29T10:22:29;21.20;99.90
4390;DHT22;2209;48.982;8.406;2023-07-29T10:24:59;21.20;99.90
4390;DHT22;2209;48.982;8.406;2023-07-29T10:27:25;21.30;99.90
4390;DHT22;2209;48.982;8.406;2023-07-29T10:29:49;21.30;99.90
4390;DHT22;2209;48.982;8.406;2023-07-29T10:32:12;21.30;99.90
4390;DHT22;2209;48.982;8.406;2023-07-29T10:34:34;21.30;99.90
4390;DHT22;2209;48.982;8.406;2023-07-29T10:37:00;21.30;99.90
4390;DHT22;2209;48.982;8.406;2023-07-29T10:39:24;21.30;99.90
4390;DHT22;2209;48.982;8.406;2023-07-29T10:41:59;21.30;99.90
4390;DHT22;2209;48.982;8.406;2023-07-29T10:44:50;21.40;99.90
4390;DHT22;2209;48.982;8.406;2023-07-29T10:47:13;21.40;99.90
4390;DHT22;2209;48.982;8.406;2023-07-29T10:49:36;21.40;99.90
4390;DHT22;2209;48.982;8.406;2023-07-29T10:51:59;21.40;99.90
4390;DHT22;2209;48.982;8.406;2023-07-29T10:54:23;21.40;99.90
4390;DHT22;2209;48.982;8.406;2023-07-29T10:56:48;21.50;99.90
4390;DHT22;2209;48.982;8.406;2023-07-29T10:59:31;21.50;99.90
4390;DHT22;2209;48.982;8.406;2023-07-29T11:01:57;21.60;99.90
4390;DHT22;2209;48.982;8.406;2023-07-29T11:04:26;21.60;99.90
4390;DHT22;2209;48.982;8.406;2023-07-29T11:07:19;21.60;99.90
4390;DHT22;2209;48.982;8.406;2023-07-29T11:09:54;21.60;99.90
4390;DHT22;2209;48.982;8.406;2023-07-29T11:12:39;21.70;99.90
4390;DHT22;2209;48.982;8.406;2023-07-29T11:15:03;21.70;99.90
4390;DHT22;2209;48.982;8.406;2023-07-29T11:17:26;21.70;99.90
4390;DHT22;2209;48.982;8.406;2023-07-29T11:19:48;21.70;99.90
4390;DHT22;2209;48.982;8.406;2023-07-29T11:22:13;21.80;99.90
4390;DHT22;2209;48.982;8.406;2023-07-29T11:24:35;21.90;99.90
4390;DHT22;2209;48.982;8.406;2023-07-29T11:26:59;21.90;99.90
4390;DHT22;2209;48.982;8.406;2023-07-29T11:29:21;22.00;99.90
4390;DHT22;2209;48.982;8.406;2023-07-29T11:31:43;22.00;99.90
4390;DHT22;2209;48.982;8.406;2023-07-29T11:34:06;22.10;99.90
4390;DHT22;2209;48.982;8.406;2023-07-29T11:36:29;22.10;99.90
4390;DHT22;2209;48.982;8.406;2023-07-29T11:38:52;22.20;99.90
4390;DHT22;2209;48.982;8.406;2023-07-29T11:41:29;22.20;99.90
4390;DHT22;2209;48.982;8.406;2023-07-29T11:46:57;22.30;99.90
4390;DHT22;2209;48.982;8.406;2023-07-29T11:49:19;22.30;99.90
4390;DHT22;2209;48.982;8.406;2023-07-29T11:51:42;22.40;99.90
4390;DHT22;2209;48.982;8.406;2023-07-29T11:54:05;22.40;99.90
4390;DHT22;2209;48.982;8.406;2023-07-29T11:56:39;22.40;99.90
4390;DHT22;2209;48.982;8.406;2023-07-29T11:59:14;22.40;99.90
4390;DHT22;2209;48.982;8.406;2023-07-29T12:05:27;22.50;99.90
4390;DHT22;2209;48.982;8.406;2023-07-29T12:08:21;22.50;99.90
4390;DHT22;2209;48.982;8.406;2023-07-29T12:14:43;22.60;99.90
4390;DHT22;2209;48.982;8.406;2023-07-29T12:20:51;22.70;99.90
4390;DHT22;2209;48.982;8.406;2023-07-29T12:23:57;22.70;99.90
4390;DHT22;2209;48.982;8.406;2023-07-29T12:33:39;22.90;99.90
4390;DHT22;2209;48.982;8.406;2023-07-29T12:36:03;22.90;99.90
4390;DHT22;2209;48.982;8.406;2023-07-29T12:38:26;23.00;99.90
4390;DHT22;2209;48.982;8.406;2023-07-29T12:40:48;23.10;99.90
4390;DHT22;2209;48.982;8.406;2023-07-29T12:43:12;23.10;99.90
4390;DHT22;2209;48.982;8.406;2023-07-29T12:45:36;23.20;99.90
4390;DHT22;2209;48.982;8.406;2023-07-29T12:48:13;23.30;99.90
4390;DHT22;2209;48.982;8.406;2023-07-29T12:53:37;23.30;99.90
4390;DHT22;2209;48.982;8.406;2023-07-29T12:56:34;23.30;99.90
4390;DHT22;2209;48.982;8.406;2023-07-29T12:58:59;23.40;99.90
4390;DHT22;2209;48.982;8.406;2023-07-29T13:01:21;23.40;99.90
4390;DHT22;2209;48.982;8.406;2023-07-29T13:03:43;23.40;99.90
4390;DHT22;2209;48.982;8.406;2023-07-29T13:06:05;23.40;99.90
4390;DHT22;2209;48.982;8.406;2023-07-29T13:08:29;23.50;99.90
4390;DHT22;2209;48.982;8.406;2023-07-29T13:10:53;23.50;99.90
4390;DHT22;2209;48.982;8.406;2023-07-29T13:13:15;23.60;99.90
4390;DHT22;2209;48.982;8.406;2023-07-29T13:15:37;23.60;99.90
4390;DHT22;2209;48.982;8.406;2023-07-29T13:17:59;23.70;99.90
4390;DHT22;2209;48.982;8.406;2023-07-29T13:20:21;23.80;99.90
4390;DHT22;2209;48.982;8.406;2023-07-29T13:22:44;23.80;99.90
4390;DHT22;2209;48.982;8.406;2023-07-29T13:25:06;23.80;99.90
4390;DHT22;2209;48.982;8.406;2023-07-29T13:30:36;23.90;99.90
4390;DHT22;2209;48.982;8.406;2023-07-29T13:32:59;23.90;99.90
4390;DHT22;2209;48.982;8.406;2023-07-29T13:35:21;23.90;99.90
4390;DHT22;2209;48.982;8.406;2023-07-29T13:37:43;23.90;99.90
4390;DHT22;2209;48.982;8.406;2023-07-29T13:40:06;23.90;99.90
4390;DHT22;2209;48.982;8.406;2023-07-29T13:42:29;23.90;99.90
4390;DHT22;2209;48.982;8.406;2023-07-29T13:44:51;24.00;99.90
4390;DHT22;2209;48.982;8.406;2023-07-29T13:47:14;24.00;99.90
4390;DHT22;2209;48.982;8.406;2023-07-29T13:49:36;24.00;99.90
4390;DHT22;2209;48.982;8.406;2023-07-29T13:51:59;24.10;99.90
4390;DHT22;2209;48.982;8.406;2023-07-29T13:54:21;24.10;99.90
4390;DHT22;2209;48.982;8.406;2023-07-29T13:56:43;24.10;99.90
4390;DHT22;2209;48.982;8.406;2023-07-29T13:59:05;24.00;99.90
4390;DHT22;2209;48.982;8.406;2023-07-29T14:01:27;24.10;99.90
4390;DHT22;2209;48.982;8.406;2023-07-29T14:03:51;24.20;99.90
4390;DHT22;2209;48.982;8.406;2023-07-29T14:06:13;24.20;99.90
4390;DHT22;2209;48.982;8.406;2023-07-29T14:08:35;24.30;99.90
4390;DHT22;2209;48.982;8.406;2023-07-29T14:10:57;24.40;99.90
4390;DHT22;2209;48.982;8.406;2023-07-29T14:13:19;24.40;99.90
4390;DHT22;2209;48.982;8.406;2023-07-29T14:15:41;24.50;99.90
4390;DHT22;2209;48.982;8.406;2023-07-29T14:18:03;24.50;99.90
4390;DHT22;2209;48.982;8.406;2023-07-29T14:20:26;24.60;99.90
4390;DHT22;2209;48.982;8.406;2023-07-29T14:22:48;24.60;99.90
4390;DHT22;2209;48.982;8.406;2023-07-29T14:25:11;24.60;99.90
4390;DHT22;2209;48.982;8.406;2023-07-29T14:27:33;24.70;99.90
4390;DHT22;2209;48.982;8.406;2023-07-29T14:29:55;24.80;99.90
4390;DHT22;2209;48.982;8.406;2023-07-29T14:32:17;24.90;99.90
4390;DHT22;2209;48.982;8.406;2023-07-29T14:34:39;24.90;99.90
4390;DHT22;2209;48.982;8.406;2023-07-29T14:37:04;25.00;99.90
4390;DHT22;2209;48.982;8.406;2023-07-29T14:39:26;25.10;99.90
4390;DHT22;2209;48.982;8.406;2023-07-29T14:41:48;25.10;99.90
4390;DHT22;2209;48.982;8.406;2023-07-29T14:44:10;25.20;99.90
4390;DHT22;2209;48.982;8.406;2023-07-29T14:46:32;25.20;99.90
4390;DHT22;2209;48.982;8.406;2023-07-29T14:48:54;25.20;99.90
4390;DHT22;2209;48.982;8.406;2023-07-29T14:51:16;25.20;99.90
4390;DHT22;2209;48.982;8.406;2023-07-29T14:53:39;25.20;99.90
4390;DHT22;2209;48.982;8.406;2023-07-29T14:56:02;25.20;99.90
4390;DHT22;2209;48.982;8.406;2023-07-29T14:58:24;25.30;99.90
4390;DHT22;2209;48.982;8.406;2023-07-29T15:00:46;25.30;99.90
4390;DHT22;2209;48.982;8.406;2023-07-29T15:03:08;25.30;99.90
4390;DHT22;2209;48.982;8.406;2023-07-29T15:05:30;25.30;99.90
4390;DHT22;2209;48.982;8.406;2023-07-29T15:07:52;25.30;99.90
4390;DHT22;2209;48.982;8.406;2023-07-29T15:10:16;25.30;99.90
4390;DHT22;2209;48.982;8.406;2023-07-29T15:12:38;25.30;99.90
4390;DHT22;2209;48.982;8.406;2023-07-29T15:15:00;25.40;99.90
4390;DHT22;2209;48.982;8.406;2023-07-29T15:17:22;25.50;99.90
4390;DHT22;2209;48.982;8.406;2023-07-29T15:19:44;25.60;99.90
4390;DHT22;2209;48.982;8.406;2023-07-29T15:22:10;25.70;99.90
4390;DHT22;2209;48.982;8.406;2023-07-29T15:24:32;25.70;99.90
4390;DHT22;2209;48.982;8.406;2023-07-29T15:26:56;25.80;99.90
4390;DHT22;2209;48.982;8.406;2023-07-29T15:29:18;25.90;99.90
4390;DHT22;2209;48.982;8.406;2023-07-29T15:31:40;25.90;99.90
4390;DHT22;2209;48.982;8.406;2023-07-29T15:34:03;26.00;99.90
4390;DHT22;2209;48.982;8.406;2023-07-29T15:36:25;26.00;99.90
4390;DHT22;2209;48.982;8.406;2023-07-29T15:38:47;26.10;99.90
4390;DHT22;2209;48.982;8.406;2023-07-29T15:41:09;26.10;99.90
4390;DHT22;2209;48.982;8.406;2023-07-29T15:43:32;26.10;99.90
4390;DHT22;2209;48.982;8.406;2023-07-29T15:45:56;26.20;99.90
4390;DHT22;2209;48.982;8.406;2023-07-29T15:48:19;26.20;99.90
4390;DHT22;2209;48.982;8.406;2023-07-29T15:50:41;26.20;99.90
4390;DHT22;2209;48.982;8.406;2023-07-29T15:53:04;26.20;99.90
4390;DHT22;2209;48.982;8.406;2023-07-29T15:55:26;26.20;99.90
4390;DHT22;2209;48.982;8.406;2023-07-29T15:57:49;26.20;99.90
4390;DHT22;2209;48.982;8.406;2023-07-29T16:00:13;26.30;99.90
4390;DHT22;2209;48.982;8.406;2023-07-29T16:02:35;26.30;99.90
4390;DHT22;2209;48.982;8.406;2023-07-29T16:04:58;26.40;99.90
4390;DHT22;2209;48.982;8.406;2023-07-29T16:07:20;26.40;99.90
4390;DHT22;2209;48.982;8.406;2023-07-29T16:09:43;26.40;99.90
4390;DHT22;2209;48.982;8.406;2023-07-29T16:12:05;26.50;99.90
4390;DHT22;2209;48.982;8.406;2023-07-29T16:14:27;26.50;99.90
4390;DHT22;2209;48.982;8.406;2023-07-29T16:16:51;26.60;99.90
4390;DHT22;2209;48.982;8.406;2023-07-29T16:19:17;26.60;99.90
4390;DHT22;2209;48.982;8.406;2023-07-29T16:21:39;26.70;99.90
4390;DHT22;2209;48.982;8.406;2023-07-29T16:24:01;26.80;99.90
4390;DHT22;2209;48.982;8.406;2023-07-29T16:26:23;27.00;99.90